createdAt,value
2022-11-27T00:11:54.452Z,12.92
2022-11-27T00:14:28.268Z,12.45
2022-11-27T00:17:01.422Z,13.33
2022-11-27T00:19:34.744Z,13.40
2022-11-27T00:22:08.416Z,13.61
2022-11-27T00:24:43.257Z,13.70
2022-11-27T00:27:18.423Z,13.99
2022-11-27T00:37:38.376Z,14.06
2022-11-27T00:40:19.433Z,13.82
2022-11-27T00:42:54.545Z,13.89
2022-11-27T00:45:27.424Z,14.45
2022-11-27T00:48:00.713Z,14.09
2022-11-27T00:50:34.417Z,14.39
2022-11-27T01:04:25.422Z,14.49
2022-11-27T01:06:58.608Z,15.49
2022-11-27T01:09:36.395Z,15.11
2022-11-27T01:12:09.780Z,14.82
2022-11-27T01:14:43.427Z,14.76
2022-11-27T01:17:16.578Z,14.33
2022-11-27T01:33:31.415Z,15.69
2022-11-27T01:36:07.681Z,15.86
2022-11-27T01:38:42.677Z,15.55
2022-11-27T01:41:18.751Z,15.78
2022-11-27T01:43:55.422Z,15.62
2022-11-27T01:46:37.055Z,15.59
2022-11-27T01:59:34.372Z,15.27
2022-11-27T02:02:14.440Z,15.49
2022-11-27T02:04:47.900Z,15.48
2022-11-27T02:07:21.505Z,14.70
2022-11-27T02:09:54.670Z,14.63
2022-11-27T02:12:33.453Z,15.20
2022-11-27T02:26:29.416Z,14.90
2022-11-27T02:29:08.884Z,14.96
2022-11-27T02:32:03.413Z,14.34
2022-11-27T02:34:48.779Z,14.23
2022-11-27T02:37:40.448Z,14.26
2022-11-27T02:40:23.064Z,13.50
2022-11-27T02:53:29.361Z,12.85
2022-11-27T02:56:14.403Z,12.85
2022-11-27T02:58:50.685Z,12.29
2022-11-27T03:01:28.427Z,12.11
2022-11-27T03:04:10.105Z,12.37
2022-11-27T03:06:59.381Z,11.64
2022-11-27T03:20:21.445Z,11.85
2022-11-27T03:22:56.208Z,11.83
2022-11-27T03:25:30.376Z,12.19
2022-11-27T03:28:08.031Z,12.07
2022-11-27T03:30:48.406Z,11.80
2022-11-27T03:47:45.413Z,11.15
2022-11-27T03:50:38.375Z,11.26
2022-11-27T03:53:26.254Z,11.01
2022-11-27T03:56:17.436Z,11.35
2022-11-27T03:58:58.393Z,11.04
2022-11-27T04:01:38.452Z,11.03
2022-11-27T04:11:42.339Z,11.35
2022-11-27T04:14:22.377Z,11.29
2022-11-27T04:16:55.536Z,11.05
2022-11-27T04:19:22.224Z,11.58
2022-11-27T04:22:02.376Z,11.31
2022-11-27T04:24:35.623Z,11.77
2022-11-27T04:27:10.405Z,11.25
2022-11-27T04:40:20.430Z,11.63
2022-11-27T04:42:55.485Z,11.49
2022-11-27T04:45:29.999Z,11.80
2022-11-27T04:48:05.468Z,12.39
2022-11-27T04:50:38.372Z,11.87
2022-11-27T05:07:15.359Z,11.06
2022-11-27T05:09:55.408Z,10.83
2022-11-27T05:12:28.568Z,11.02
2022-11-27T05:14:55.236Z,10.76
2022-11-27T05:17:35.381Z,10.80
2022-11-27T05:20:09.885Z,10.29
2022-11-27T05:32:15.344Z,10.05
2022-11-27T05:34:55.356Z,10.39
2022-11-27T05:37:28.706Z,10.03
2022-11-27T05:40:03.371Z,10.62
2022-11-27T05:42:36.583Z,10.24
2022-11-27T05:45:11.364Z,10.05
2022-11-27T05:58:41.360Z,10.80
2022-11-27T06:01:16.879Z,10.90
2022-11-27T06:03:50.432Z,10.51
2022-11-27T06:06:23.621Z,11.30
2022-11-27T06:08:50.272Z,11.27
2022-11-27T06:11:30.376Z,10.96
2022-11-27T06:26:45.386Z,10.32
2022-11-27T06:29:25.380Z,10.75
2022-11-27T06:31:58.600Z,10.77
2022-11-27T06:34:32.336Z,10.60
2022-11-27T06:37:10.408Z,10.23
2022-11-27T06:39:55.346Z,10.31
2022-11-27T06:42:31.376Z,10.15
2022-11-27T06:52:09.343Z,10.98
2022-11-27T06:54:42.812Z,10.98
2022-11-27T06:57:17.445Z,11.07
2022-11-27T06:59:53.028Z,10.75
2022-11-27T07:02:26.428Z,11.33
2022-11-27T07:04:59.448Z,10.96
2022-11-27T07:07:43.658Z,11.07
2022-11-27T07:21:03.320Z,10.79
2022-11-27T07:23:37.592Z,10.61
2022-11-27T07:26:15.749Z,11.42
2022-11-27T07:28:49.207Z,11.57
2022-11-27T07:31:26.386Z,10.54
2022-11-27T07:48:02.321Z,11.17
2022-11-27T07:50:42.335Z,12.01
2022-11-27T07:53:15.565Z,11.91
2022-11-27T07:55:42.262Z,11.34
2022-11-27T07:58:23.960Z,11.27
2022-11-27T08:00:57.557Z,11.16
2022-11-27T08:13:46.316Z,11.08
2022-11-27T08:16:26.385Z,10.16
2022-11-27T08:18:59.627Z,10.51
2022-11-27T08:21:35.344Z,10.20
2022-11-27T08:24:08.735Z,10.41
2022-11-27T08:26:42.337Z,11.04
2022-11-27T08:39:54.353Z,10.80
2022-11-27T08:42:27.564Z,10.72
2022-11-27T08:44:54.264Z,11.02
2022-11-27T08:47:34.337Z,10.91
2022-11-27T08:50:09.244Z,10.16
2022-11-27T08:52:42.375Z,11.11
2022-11-27T09:06:01.324Z,11.32
2022-11-27T09:08:34.569Z,10.81
2022-11-27T09:11:08.326Z,10.90
2022-11-27T09:13:43.280Z,11.48
2022-11-27T09:16:20.420Z,11.27
2022-11-27T09:18:53.679Z,11.32
2022-11-27T09:21:32.317Z,11.41
2022-11-27T09:34:42.738Z,10.57
2022-11-27T09:37:18.404Z,11.00
2022-11-27T09:39:51.349Z,11.57
2022-11-27T09:42:39.986Z,11.40
2022-11-27T09:45:23.342Z,11.20
2022-11-27T09:59:18.329Z,12.22
2022-11-27T10:01:53.705Z,12.10
2022-11-27T10:05:05.794Z,11.77
2022-11-27T10:08:06.945Z,12.00
2022-11-27T10:11:11.315Z,11.88
2022-11-27T10:28:02.276Z,12.08
2022-11-27T10:30:52.324Z,12.83
2022-11-27T10:33:35.073Z,12.03
2022-11-27T10:36:23.288Z,11.92
2022-11-27T10:39:00.056Z,11.34
2022-11-27T10:41:57.292Z,11.38
2022-11-27T10:55:27.333Z,10.45
2022-11-27T10:58:15.403Z,9.72
2022-11-27T11:00:55.344Z,9.50
2022-11-27T11:03:28.589Z,9.23
2022-11-27T11:06:23.423Z,8.16
2022-11-27T11:19:42.313Z,7.44
2022-11-27T11:22:17.593Z,7.50
2022-11-27T11:24:55.311Z,7.47
2022-11-27T11:27:31.196Z,7.31
2022-11-27T11:30:07.320Z,7.60
2022-11-27T11:32:40.735Z,7.47
2022-11-27T11:46:15.346Z,7.89
2022-11-27T11:49:08.311Z,7.16
2022-11-27T11:52:18.599Z,7.65
2022-11-27T11:58:05.685Z,8.18
2022-11-27T12:01:19.454Z,8.57
2022-11-27T12:14:41.604Z,8.43
2022-11-27T12:17:46.996Z,8.82
2022-11-27T12:20:40.276Z,8.45
2022-11-27T12:23:37.892Z,8.79
2022-11-27T12:26:31.301Z,8.97
2022-11-27T12:40:27.382Z,9.89
2022-11-27T12:43:18.901Z,9.74
2022-11-27T12:46:07.350Z,8.90
2022-11-27T12:48:47.206Z,9.37
2022-11-27T12:51:37.289Z,8.83
2022-11-27T13:08:22.263Z,10.21
2022-11-27T13:11:12.340Z,10.34
2022-11-27T13:13:51.993Z,11.69
2022-11-27T13:16:40.323Z,11.58
2022-11-27T13:19:24.540Z,11.49
2022-11-27T13:22:06.277Z,12.27
2022-11-27T13:35:32.342Z,11.35
2022-11-27T13:38:11.701Z,11.02
2022-11-27T13:40:55.300Z,11.31
2022-11-27T13:43:40.560Z,11.23
2022-11-27T13:46:28.363Z,11.10
2022-11-27T14:00:19.294Z,9.80
2022-11-27T14:02:52.491Z,9.30
2022-11-27T14:05:39.303Z,9.39
2022-11-27T14:08:24.990Z,9.33
2022-11-27T14:11:10.259Z,9.42
2022-11-27T14:13:49.085Z,9.52
2022-11-27T14:16:37.338Z,9.67
2022-11-27T14:26:53.257Z,10.19
2022-11-27T14:29:36.261Z,10.01
2022-11-27T14:32:13.742Z,10.13
2022-11-27T14:34:55.287Z,10.13
2022-11-27T14:37:28.469Z,9.72
2022-11-27T14:40:02.273Z,10.21
2022-11-27T14:42:39.241Z,10.24
2022-11-27T14:55:36.232Z,11.22
2022-11-27T14:58:28.299Z,11.08
2022-11-27T15:01:05.219Z,11.53
2022-11-27T15:03:45.304Z,10.83
2022-11-27T15:06:19.979Z,11.25
2022-11-27T15:22:35.984Z,12.08
2022-11-27T15:25:35.266Z,12.19
2022-11-27T15:28:36.261Z,11.94
2022-11-27T15:31:31.662Z,12.03
2022-11-27T15:34:27.263Z,11.88
2022-11-27T15:37:03.037Z,11.93
2022-11-27T15:47:11.293Z,12.55
2022-11-27T15:49:46.677Z,13.47
2022-11-27T15:52:20.311Z,13.34
2022-11-27T15:54:53.801Z,14.46
2022-11-27T15:57:27.274Z,13.84
2022-11-27T16:00:00.431Z,14.14
2022-11-27T16:02:27.126Z,14.75
2022-11-27T16:15:30.058Z,16.62
2022-11-27T16:18:12.281Z,16.53
2022-11-27T16:20:45.739Z,15.91
2022-11-27T16:23:20.939Z,16.09
2022-11-27T16:25:54.453Z,16.16
2022-11-27T16:42:09.280Z,15.86
2022-11-27T16:44:42.678Z,15.72
2022-11-27T16:47:16.316Z,15.92
2022-11-27T16:49:49.513Z,16.45
2022-11-27T16:52:23.320Z,16.19
2022-11-27T16:55:03.876Z,15.60
2022-11-27T16:57:46.256Z,15.91
2022-11-27T17:07:31.277Z,15.80
2022-11-27T17:10:13.250Z,16.20
2022-11-27T17:12:48.345Z,16.03
2022-11-27T17:15:22.248Z,15.81
2022-11-27T17:18:03.176Z,15.64
2022-11-27T17:20:43.283Z,16.05
2022-11-27T17:23:17.279Z,16.44
2022-11-27T17:36:08.216Z,16.44
2022-11-27T17:38:48.289Z,16.23
2022-11-27T17:41:22.664Z,16.51
2022-11-27T17:43:56.232Z,16.53
2022-11-27T17:46:29.576Z,17.66
2022-11-27T18:02:53.804Z,17.45
2022-11-27T18:05:27.836Z,17.27
2022-11-27T18:08:01.310Z,17.84
2022-11-27T18:10:34.988Z,18.34
2022-11-27T18:13:09.253Z,19.09
2022-11-27T18:15:42.893Z,17.85
2022-11-27T18:18:18.231Z,18.41
2022-11-27T18:28:10.218Z,18.23
2022-11-27T18:30:51.520Z,19.02
2022-11-27T18:33:26.687Z,18.73
2022-11-27T18:36:00.248Z,19.02
2022-11-27T18:38:44.117Z,19.43
2022-11-27T18:41:27.244Z,18.83
2022-11-27T18:54:39.219Z,19.73
2022-11-27T18:57:12.513Z,19.65
2022-11-27T18:59:47.224Z,18.48
2022-11-27T19:02:20.480Z,19.02
2022-11-27T19:04:47.178Z,18.02
2022-11-27T19:07:27.319Z,19.77
2022-11-27T19:21:15.243Z,18.39
2022-11-27T19:23:51.558Z,18.69
2022-11-27T19:26:29.219Z,18.30
2022-11-27T19:29:08.748Z,18.09
2022-11-27T19:31:51.002Z,17.98
2022-11-27T19:34:24.536Z,18.35
2022-11-27T19:37:00.200Z,17.76
2022-11-27T19:50:11.242Z,17.05
2022-11-27T19:52:46.503Z,16.36
2022-11-27T19:55:20.199Z,16.81
2022-11-27T19:57:53.398Z,16.06
2022-11-27T20:00:27.213Z,15.73
2022-11-27T20:03:02.648Z,16.29
2022-11-27T20:15:53.207Z,15.57
2022-11-27T20:18:33.232Z,15.12
2022-11-27T20:21:10.552Z,16.48
2022-11-27T20:23:53.294Z,15.17
2022-11-27T20:26:27.603Z,15.55
2022-11-27T20:42:43.214Z,14.34
2022-11-27T20:45:20.335Z,15.10
2022-11-27T20:48:01.196Z,14.99
2022-11-27T20:50:37.037Z,14.66
2022-11-27T20:55:40.999Z,14.89
2022-11-27T20:58:10.355Z,15.11
2022-11-27T21:08:12.204Z,14.36
2022-11-27T21:10:45.804Z,15.01
2022-11-27T21:13:21.232Z,15.15
2022-11-27T21:15:54.498Z,15.68
2022-11-27T21:18:28.201Z,15.65
2022-11-27T21:21:06.776Z,15.72
2022-11-27T21:37:26.929Z,15.06
2022-11-27T21:40:00.523Z,15.39
2022-11-27T21:42:34.214Z,14.62
2022-11-27T21:45:08.568Z,15.21
2022-11-27T21:47:42.204Z,15.71
2022-11-27T22:01:37.275Z,15.35
2022-11-27T22:04:13.153Z,15.37
2022-11-27T22:06:48.325Z,14.90
2022-11-27T22:09:21.516Z,14.99
2022-11-27T22:11:58.174Z,15.16
2022-11-27T22:14:32.673Z,15.72
2022-11-27T22:17:06.209Z,15.59
2022-11-27T22:30:18.197Z,14.35
2022-11-27T22:32:52.528Z,14.05
2022-11-27T22:35:26.197Z,14.21
2022-11-27T22:37:59.376Z,14.10
2022-11-27T22:40:26.085Z,14.15
2022-11-27T22:43:06.892Z,13.95
2022-11-27T22:56:19.225Z,12.83
2022-11-27T22:59:11.454Z,13.70
2022-11-27T23:01:53.193Z,13.32
2022-11-27T23:04:26.593Z,12.85
2022-11-27T23:07:00.187Z,12.76
2022-11-27T23:23:37.373Z,11.46
2022-11-27T23:26:20.168Z,11.69
2022-11-27T23:28:53.865Z,11.63
2022-11-27T23:31:31.929Z,12.04
2022-11-27T23:34:10.923Z,11.87
2022-11-27T23:36:51.176Z,12.01
2022-11-27T23:50:03.156Z,11.20
2022-11-27T23:52:39.315Z,10.87
2022-11-27T23:55:13.176Z,10.64
2022-11-27T23:57:46.380Z,10.73
